Time;durP1;ratioP1;P1;durP2;ratioP2;P2;SDS_P1;SDS_P2;PMS_P1;PMS_P2;Temp;Humidity;BMP_temperature;BMP_pressure;BME280_temperature;BME280_humidity;BME280_pressure;Samples;Min_cycle;Max_cycle;Signal;HPM_P1;HPM_P2
2022/06/24 00:00:44;;;;;;;5.07;2.90;;;;;;;;;;4955718;28;20106;-67
2022/06/24 00:03:17;;;;;;;6.60;2.92;;;;;;;;;;4955601;28;20024;-67
2022/06/24 00:05:43;;;;;;;4.35;2.95;;;;;;;;;;4955689;28;20030;-67
2022/06/24 00:08:08;;;;;;;8.35;3.25;;;;;;;;;;4955526;28;20035;-67
2022/06/24 00:10:36;;;;;;;4.32;3.38;;;;;;;;;;4955491;28;20058;-67
2022/06/24 00:13:04;;;;;;;6.25;3.17;;;;;;;;;;4955251;28;20027;-67
2022/06/24 00:15:32;;;;;;;6.38;3.20;;;;;;;;;;4955256;28;20369;-67
2022/06/24 00:18:19;;;;;;;7.15;3.83;;;;;;;;;;4955162;28;20039;-67
2022/06/24 00:20:47;;;;;;;4.60;2.88;;;;;;;;;;4955296;28;20102;-65
2022/06/24 00:23:15;;;;;;;4.70;3.40;;;;;;;;;;4955195;28;20393;-67
2022/06/24 00:25:42;;;;;;;6.57;3.50;;;;;;;;;;4955093;28;20482;-66
2022/06/24 00:28:11;;;;;;;5.97;3.20;;;;;;;;;;4954472;28;20034;-67
2022/06/24 00:30:41;;;;;;;5.32;3.22;;;;;;;;;;4955160;28;20031;-66
2022/06/24 00:33:11;;;;;;;3.92;2.95;;;;;;;;;;4955037;28;20548;-67
2022/06/24 00:35:39;;;;;;;5.00;3.20;;;;;;;;;;4955047;28;20027;-67
2022/06/24 00:38:30;;;;;;;6.28;3.03;;;;;;;;;;4954938;29;20042;-67
2022/06/24 00:41:07;;;;;;;4.53;3.13;;;;;;;;;;4954809;28;20035;-67
2022/06/24 00:43:35;;;;;;;4.68;3.13;;;;;;;;;;4954969;28;20030;-67
2022/06/24 00:46:35;;;;;;;5.55;3.13;;;;;;;;;;4954823;28;20400;-66
2022/06/24 00:49:01;;;;;;;4.45;3.50;;;;;;;;;;4954770;28;20030;-67
2022/06/24 00:51:36;;;;;;;4.90;3.55;;;;;;;;;;4953581;28;20066;-67
2022/06/24 00:54:11;;;;;;;5.90;3.60;;;;;;;;;;4954587;28;20023;-67
2022/06/24 00:56:37;;;;;;;5.35;3.28;;;;;;;;;;4954357;28;20027;-67
2022/06/24 00:59:07;;;;;;;7.20;3.50;;;;;;;;;;4957477;28;20311;-66
2022/06/24 01:01:33;;;;;;;5.95;3.50;;;;;;;;;;4973788;28;20046;-67
2022/06/24 01:04:00;;;;;;;4.45;3.50;;;;;;;;;;4973632;28;20130;-66
2022/06/24 01:06:27;;;;;;;4.53;3.40;;;;;;;;;;4973885;28;20425;-67
2022/06/24 01:08:53;;;;;;;5.32;3.35;;;;;;;;;;4973815;28;20031;-67
2022/06/24 01:11:27;;;;;;;7.25;3.80;;;;;;;;;;4973581;28;20030;-67
2022/06/24 01:13:53;;;;;;;5.75;3.55;;;;;;;;;;4973975;28;20050;-66
2022/06/24 01:16:23;;;;;;;4.88;3.40;;;;;;;;;;4973579;28;20047;-67
2022/06/24 01:19:09;;;;;;;;;;;;;;;;;;4956097;28;20043;-67
2022/06/24 01:21:46;;;;;;;4.85;3.30;;;;;;;;;;4954162;29;19947;-67
2022/06/24 01:24:17;;;;;;;5.95;3.17;;;;;;;;;;4954249;28;20103;-65
2022/06/24 01:26:47;;;;;;;5.13;3.65;;;;;;;;;;4954363;28;20023;-65
2022/06/24 01:29:14;;;;;;;6.40;3.47;;;;;;;;;;4954468;28;20115;-65
2022/06/24 01:31:40;;;;;;;5.15;3.30;;;;;;;;;;4954416;28;20393;-66
2022/06/24 01:34:08;;;;;;;7.25;3.45;;;;;;;;;;4954408;28;20493;-65
2022/06/24 01:36:34;;;;;;;5.85;3.50;;;;;;;;;;4954228;28;20034;-64
2022/06/24 01:38:59;;;;;;;5.70;3.55;;;;;;;;;;4954117;28;20039;-64
2022/06/24 01:41:25;;;;;;;7.72;3.70;;;;;;;;;;4958292;28;20035;-66
2022/06/24 01:43:50;;;;;;;5.72;3.45;;;;;;;;;;4958114;28;20027;-67
2022/06/24 01:46:16;;;;;;;6.07;4.10;;;;;;;;;;4958206;28;20362;-68
2022/06/24 01:48:42;;;;;;;5.03;3.55;;;;;;;;;;4958159;28;20488;-67
2022/06/24 01:51:11;;;;;;;4.85;3.50;;;;;;;;;;4958054;28;20369;-68
2022/06/24 01:53:36;;;;;;;7.85;3.97;;;;;;;;;;4957867;28;20035;-66
2022/06/24 01:56:02;;;;;;;6.53;3.67;;;;;;;;;;4957951;28;20070;-69
2022/06/24 01:58:27;;;;;;;9.20;3.70;;;;;;;;;;4957871;28;20094;-68
2022/06/24 02:00:53;;;;;;;6.07;3.60;;;;;;;;;;4957801;28;20024;-67
2022/06/24 02:03:18;;;;;;;4.25;3.33;;;;;;;;;;4957834;28;20019;-67
2022/06/24 02:05:46;;;;;;;4.45;3.78;;;;;;;;;;4957702;28;20030;-67
2022/06/24 02:08:13;;;;;;;5.88;3.97;;;;;;;;;;4957595;28;20128;-66
2022/06/24 02:13:26;;;;;;;7.53;4.00;;;;;;;;;;4957713;29;20589;-66
2022/06/24 02:15:53;;;;;;;7.70;3.83;;;;;;;;;;4957459;28;20106;-66
2022/06/24 02:18:19;;;;;;;7.07;3.50;;;;;;;;;;4957372;28;20023;-66
2022/06/24 02:20:44;;;;;;;4.68;4.00;;;;;;;;;;4957418;28;20381;-66
2022/06/24 02:23:10;;;;;;;5.38;3.53;;;;;;;;;;4957164;29;20023;-66
2022/06/24 02:25:35;;;;;;;5.07;4.00;;;;;;;;;;4957418;28;20139;-67
2022/06/24 02:28:01;;;;;;;6.13;3.70;;;;;;;;;;4957316;28;20142;-67
2022/06/24 02:30:27;;;;;;;7.20;3.85;;;;;;;;;;4957326;28;20019;-65
2022/06/24 02:32:53;;;;;;;6.03;3.95;;;;;;;;;;4957179;28;20027;-67
2022/06/24 02:35:18;;;;;;;9.32;4.38;;;;;;;;;;4957177;28;20050;-67
2022/06/24 02:37:44;;;;;;;6.68;4.72;;;;;;;;;;4957043;28;20058;-65
2022/06/24 02:42:58;;;;;;;7.28;4.05;;;;;;;;;;4957357;29;20117;-67
2022/06/24 02:45:24;;;;;;;6.10;4.18;;;;;;;;;;4957044;28;20031;-66
2022/06/24 02:47:49;;;;;;;6.32;4.30;;;;;;;;;;4957104;28;20469;-67
2022/06/24 02:50:15;;;;;;;6.85;4.50;;;;;;;;;;4956998;28;20480;-67
2022/06/24 02:52:41;;;;;;;7.15;4.57;;;;;;;;;;4956035;28;20070;-65
2022/06/24 02:55:07;;;;;;;8.10;4.07;;;;;;;;;;4956564;28;20031;-67
2022/06/24 02:57:33;;;;;;;6.50;3.90;;;;;;;;;;4956638;28;20035;-67
2022/06/24 02:59:59;;;;;;;7.45;4.38;;;;;;;;;;4956689;28;20042;-67
2022/06/24 03:02:24;;;;;;;5.38;4.30;;;;;;;;;;4956869;28;20074;-67
2022/06/24 03:04:50;;;;;;;5.60;4.38;;;;;;;;;;4956555;28;20036;-67
2022/06/24 03:07:15;;;;;;;7.72;4.40;;;;;;;;;;4956408;28;20050;-65
2022/06/24 03:09:41;;;;;;;6.32;3.58;;;;;;;;;;4956629;28;20042;-67
2022/06/24 03:12:07;;;;;;;7.70;3.72;;;;;;;;;;4956667;28;20034;-66
2022/06/24 03:14:33;;;;;;;6.72;4.07;;;;;;;;;;4956640;28;20085;-65
2022/06/24 03:16:58;;;;;;;6.47;3.90;;;;;;;;;;4956161;28;20389;-65
2022/06/24 03:19:24;;;;;;;6.75;3.70;;;;;;;;;;4956328;28;20034;-67
2022/06/24 03:21:49;;;;;;;8.15;3.40;;;;;;;;;;4956181;28;20031;-66
2022/06/24 03:24:15;;;;;;;9.15;3.60;;;;;;;;;;4956361;28;20027;-66
2022/06/24 03:26:41;;;;;;;7.70;3.85;;;;;;;;;;4956245;28;20041;-66
2022/06/24 03:29:06;;;;;;;5.18;3.95;;;;;;;;;;4956310;28;20027;-66
2022/06/24 03:31:32;;;;;;;4.72;3.30;;;;;;;;;;4956311;28;20038;-67
2022/06/24 03:33:58;;;;;;;6.80;4.00;;;;;;;;;;4955964;28;20031;-66
2022/06/24 03:36:24;;;;;;;5.25;3.65;;;;;;;;;;4955916;28;20108;-67
2022/06/24 03:38:49;;;;;;;7.45;3.40;;;;;;;;;;4956005;28;20067;-67
2022/06/24 03:41:15;;;;;;;5.18;3.42;;;;;;;;;;4956029;28;20038;-67
2022/06/24 03:43:41;;;;;;;4.95;3.28;;;;;;;;;;4971059;28;20023;-65
2022/06/24 03:46:06;;;;;;;8.20;3.47;;;;;;;;;;4955998;28;20035;-66
2022/06/24 03:48:32;;;;;;;6.43;3.40;;;;;;;;;;4956102;28;20023;-65
2022/06/24 03:50:57;;;;;;;6.20;4.10;;;;;;;;;;4955710;28;20060;-66
2022/06/24 03:53:23;;;;;;;5.00;3.25;;;;;;;;;;4955884;28;20047;-67
2022/06/24 03:55:52;;;;;;;7.03;3.17;;;;;;;;;;4955727;28;20035;-65
2022/06/24 03:58:18;;;;;;;3.70;2.92;;;;;;;;;;4955657;28;20075;-66
2022/06/24 04:00:44;;;;;;;6.72;3.20;;;;;;;;;;4955770;28;20032;-66
2022/06/24 04:03:10;;;;;;;5.28;3.13;;;;;;;;;;4954605;28;20027;-66
2022/06/24 04:05:36;;;;;;;5.57;3.05;;;;;;;;;;4955830;28;20035;-66
2022/06/24 04:08:02;;;;;;;4.80;3.30;;;;;;;;;;4955671;28;20063;-66
2022/06/24 04:10:27;;;;;;;4.40;2.78;;;;;;;;;;4955618;28;20024;-67
2022/06/24 04:12:53;;;;;;;4.53;2.85;;;;;;;;;;4955442;28;20102;-67
2022/06/24 04:15:19;;;;;;;4.35;2.90;;;;;;;;;;4955694;28;20069;-66
2022/06/24 04:17:47;;;;;;;7.18;2.97;;;;;;;;;;4973468;28;20130;-67
2022/06/24 04:20:20;;;;;;;6.22;3.20;;;;;;;;;;4994062;28;20033;-66
2022/06/24 04:22:46;;;;;;;5.50;3.10;;;;;;;;;;4994166;28;20101;-67
2022/06/24 04:25:18;;;;;;;6.95;3.00;;;;;;;;;;5110360;27;20385;-65
2022/06/24 04:27:44;;;;;;;5.55;3.00;;;;;;;;;;5110431;28;20028;-66
2022/06/24 04:30:11;;;;;;;7.10;3.35;;;;;;;;;;5118517;28;20028;-67
2022/06/24 04:32:38;;;;;;;5.47;3.55;;;;;;;;;;5114199;27;20031;-67
2022/06/24 04:35:04;;;;;;;9.63;3.63;;;;;;;;;;5097590;28;20033;-67
2022/06/24 04:37:30;;;;;;;6.15;2.88;;;;;;;;;;5089983;28;20024;-66
2022/06/24 04:39:58;;;;;;;7.25;3.53;;;;;;;;;;5089907;28;20117;-66
2022/06/24 04:42:24;;;;;;;6.57;2.70;;;;;;;;;;5089859;28;20024;-66
2022/06/24 04:44:50;;;;;;;5.82;3.22;;;;;;;;;;5110331;28;20461;-66
2022/06/24 04:47:15;;;;;;;5.07;3.08;;;;;;;;;;5130412;27;20466;-67
2022/06/24 04:49:41;;;;;;;4.72;2.90;;;;;;;;;;5130732;27;20065;-67
2022/06/24 04:52:07;;;;;;;6.30;3.22;;;;;;;;;;5130537;27;20031;-67
2022/06/24 04:54:32;;;;;;;5.32;3.03;;;;;;;;;;5129942;27;20028;-67
2022/06/24 04:56:58;;;;;;;6.97;3.00;;;;;;;;;;5130263;27;20027;-67
2022/06/24 04:59:24;;;;;;;4.38;3.20;;;;;;;;;;5130565;27;20039;-66
2022/06/24 05:01:50;;;;;;;4.68;3.00;;;;;;;;;;5130002;27;20039;-67
2022/06/24 05:04:15;;;;;;;4.68;2.67;;;;;;;;;;5130196;27;20073;-66
2022/06/24 05:06:41;;;;;;;5.38;3.00;;;;;;;;;;5130078;27;20065;-66
2022/06/24 05:09:06;;;;;;;6.95;3.25;;;;;;;;;;5130060;27;20035;-66
2022/06/24 05:11:32;;;;;;;5.18;2.90;;;;;;;;;;5130174;27;20383;-67
2022/06/24 05:13:57;;;;;;;5.22;2.65;;;;;;;;;;5130010;27;20035;-66
2022/06/24 05:16:23;;;;;;;6.72;2.90;;;;;;;;;;5129829;27;20460;-66
2022/06/24 05:18:49;;;;;;;5.47;2.70;;;;;;;;;;5110917;27;20081;-66
2022/06/24 05:21:14;;;;;;;5.63;3.10;;;;;;;;;;5109403;28;20480;-66
2022/06/24 05:23:40;;;;;;;5.53;3.20;;;;;;;;;;5109161;28;20424;-67
2022/06/24 05:26:05;;;;;;;5.82;3.13;;;;;;;;;;5109400;28;20020;-68
2022/06/24 05:28:34;;;;;;;3.80;2.75;;;;;;;;;;5109504;28;20028;-67
2022/06/24 05:30:59;;;;;;;4.95;2.90;;;;;;;;;;5109224;28;20031;-68
2022/06/24 05:33:26;;;;;;;6.35;2.80;;;;;;;;;;5108065;28;20491;-68
2022/06/24 05:35:55;;;;;;;6.90;3.20;;;;;;;;;;5100059;28;20043;-68
2022/06/24 05:38:22;;;;;;;7.00;2.90;;;;;;;;;;5095633;28;20559;-68
2022/06/24 05:40:51;;;;;;;3.47;2.60;;;;;;;;;;5095613;28;20040;-68
2022/06/24 05:43:18;;;;;;;6.68;3.30;;;;;;;;;;5095299;28;20020;-66
2022/06/24 05:45:45;;;;;;;5.68;2.92;;;;;;;;;;5094978;28;20362;-65
2022/06/24 05:48:11;;;;;;;7.70;3.03;;;;;;;;;;5095391;28;20099;-65
2022/06/24 05:50:37;;;;;;;5.22;2.67;;;;;;;;;;5095331;28;20103;-65
2022/06/24 05:55:49;;;;;;;3.60;2.22;;;;;;;;;;5095659;28;20035;-68
2022/06/24 05:58:14;;;;;;;5.43;2.60;;;;;;;;;;5095197;28;20081;-68
2022/06/24 06:00:40;;;;;;;4.03;2.42;;;;;;;;;;5094829;28;20393;-68
2022/06/24 06:03:05;;;;;;;5.28;2.85;;;;;;;;;;5095043;28;20427;-68
2022/06/24 06:05:31;;;;;;;5.20;3.08;;;;;;;;;;5094881;28;20073;-68
2022/06/24 06:07:56;;;;;;;7.15;3.20;;;;;;;;;;5094904;28;20024;-68
2022/06/24 06:10:22;;;;;;;8.02;2.88;;;;;;;;;;5094959;28;20023;-67
2022/06/24 06:12:48;;;;;;;7.15;3.40;;;;;;;;;;5094851;28;20024;-68
2022/06/24 06:15:13;;;;;;;4.82;3.13;;;;;;;;;;5094409;28;20089;-68
2022/06/24 06:17:39;;;;;;;7.43;3.00;;;;;;;;;;5085657;28;20020;-65
2022/06/24 06:20:05;;;;;;;6.50;3.22;;;;;;;;;;5074474;28;20029;-67
2022/06/24 06:22:32;;;;;;;3.83;2.50;;;;;;;;;;5074153;28;20021;-68
2022/06/24 06:24:57;;;;;;;4.65;2.72;;;;;;;;;;5073945;28;20398;-65
2022/06/24 06:27:23;;;;;;;5.97;2.92;;;;;;;;;;5074333;28;20016;-68
2022/06/24 06:29:48;;;;;;;5.68;3.33;;;;;;;;;;5074061;28;20103;-68
2022/06/24 06:32:14;;;;;;;5.05;2.92;;;;;;;;;;5074239;28;20438;-68
2022/06/24 06:34:39;;;;;;;5.60;3.15;;;;;;;;;;5074151;28;20033;-68
2022/06/24 06:37:05;;;;;;;7.18;3.35;;;;;;;;;;5074033;28;20076;-66
2022/06/24 06:39:31;;;;;;;4.03;2.92;;;;;;;;;;5073996;28;20102;-66
2022/06/24 06:41:56;;;;;;;7.35;2.95;;;;;;;;;;5073972;28;20028;-65
2022/06/24 06:44:22;;;;;;;6.55;2.90;;;;;;;;;;5073481;28;20454;-65
2022/06/24 06:46:49;;;;;;;4.63;2.88;;;;;;;;;;5072965;28;20107;-65
2022/06/24 06:49:14;;;;;;;5.22;2.83;;;;;;;;;;5073671;28;20469;-65
2022/06/24 06:51:40;;;;;;;6.93;3.17;;;;;;;;;;5073849;28;20097;-65
2022/06/24 06:54:06;;;;;;;4.22;2.22;;;;;;;;;;5073707;28;20048;-66
2022/06/24 06:56:31;;;;;;;8.35;2.78;;;;;;;;;;5072361;28;20470;-66
2022/06/24 06:58:57;;;;;;;6.57;2.90;;;;;;;;;;5073166;28;20037;-65
2022/06/24 07:01:23;;;;;;;4.38;2.80;;;;;;;;;;5082750;28;20073;-64
2022/06/24 07:03:48;;;;;;;5.97;3.10;;;;;;;;;;5088994;28;20042;-65
2022/06/24 07:06:14;;;;;;;6.25;2.97;;;;;;;;;;5090581;28;20035;-66
2022/06/24 07:08:39;;;;;;;4.55;2.90;;;;;;;;;;5093292;28;20028;-65
2022/06/24 07:11:05;;;;;;;5.63;2.70;;;;;;;;;;5093274;28;20028;-65
2022/06/24 07:13:31;;;;;;;5.45;2.83;;;;;;;;;;5093278;28;20373;-68
2022/06/24 07:15:56;;;;;;;8.23;2.90;;;;;;;;;;5093253;28;20028;-68
2022/06/24 07:18:22;;;;;;;6.53;3.08;;;;;;;;;;5093128;28;20354;-68
2022/06/24 07:20:48;;;;;;;4.45;2.88;;;;;;;;;;5093235;28;20089;-67
2022/06/24 07:23:13;;;;;;;4.45;2.80;;;;;;;;;;5092711;28;20085;-67
2022/06/24 07:25:39;;;;;;;6.22;2.65;;;;;;;;;;5093239;28;20027;-68
2022/06/24 07:28:05;;;;;;;5.63;2.40;;;;;;;;;;5092803;28;20024;-65
2022/06/24 07:30:31;;;;;;;8.65;3.60;;;;;;;;;;5093025;28;20024;-67
2022/06/24 07:32:56;;;;;;;5.57;3.08;;;;;;;;;;5092853;28;20027;-66
2022/06/24 07:35:23;;;;;;;3.45;2.33;;;;;;;;;;5093068;28;20020;-66
2022/06/24 07:37:48;;;;;;;4.78;2.90;;;;;;;;;;5093067;28;20028;-66
2022/06/24 07:40:15;;;;;;;6.13;3.03;;;;;;;;;;5092626;28;20061;-66
2022/06/24 07:42:42;;;;;;;5.85;3.38;;;;;;;;;;5092571;28;20028;-67
2022/06/24 07:45:08;;;;;;;4.65;2.97;;;;;;;;;;5092082;28;20074;-67
2022/06/24 07:47:35;;;;;;;5.80;3.22;;;;;;;;;;5092693;28;20067;-67
2022/06/24 07:50:02;;;;;;;5.78;3.25;;;;;;;;;;5092405;28;20036;-67
2022/06/24 07:52:28;;;;;;;3.85;2.65;;;;;;;;;;5092679;28;20024;-67
2022/06/24 07:56:56;;;;;;;7.20;2.72;;;;;;;;;;5092609;28;20035;-67
2022/06/24 07:57:39;;;;;;;5.95;3.05;;;;;;;;;;5092601;28;20032;-65
2022/06/24 08:00:05;;;;;;;4.45;2.63;;;;;;;;;;5091205;28;20377;-67
2022/06/24 08:02:31;;;;;;;4.72;2.97;;;;;;;;;;5092430;28;20032;-66
2022/06/24 08:04:56;;;;;;;5.45;2.88;;;;;;;;;;5092086;28;20046;-65
2022/06/24 08:07:22;;;;;;;3.58;2.75;;;;;;;;;;5092140;28;20024;-66
2022/06/24 08:09:47;;;;;;;4.90;2.40;;;;;;;;;;5092194;28;20027;-66
2022/06/24 08:12:13;;;;;;;6.95;3.10;;;;;;;;;;5092179;28;20020;-66
2022/06/24 08:14:38;;;;;;;3.95;2.88;;;;;;;;;;5092246;28;20031;-66
2022/06/24 08:17:04;;;;;;;3.22;2.10;;;;;;;;;;5092145;28;20019;-65
2022/06/24 08:19:30;;;;;;;5.18;2.58;;;;;;;;;;5092393;28;20028;-66
2022/06/24 08:21:55;;;;;;;6.78;2.67;;;;;;;;;;5092192;28;20035;-66
2022/06/24 08:24:21;;;;;;;4.90;2.65;;;;;;;;;;5091484;28;20090;-65
2022/06/24 08:26:46;;;;;;;3.53;2.40;;;;;;;;;;5092410;28;20016;-66
2022/06/24 08:29:12;;;;;;;5.35;2.90;;;;;;;;;;5092088;28;20473;-66
2022/06/24 08:31:38;;;;;;;7.45;2.83;;;;;;;;;;5092101;28;20385;-65
2022/06/24 08:34:03;;;;;;;5.10;2.80;;;;;;;;;;5092285;28;20362;-65
2022/06/24 08:36:29;;;;;;;5.00;2.80;;;;;;;;;;5092181;28;20036;-64
2022/06/24 08:38:55;;;;;;;5.93;2.58;;;;;;;;;;5091964;28;20482;-66
2022/06/24 08:41:23;;;;;;;5.78;2.50;;;;;;;;;;5092162;28;20397;-66
2022/06/24 08:43:54;;;;;;;5.18;2.70;;;;;;;;;;5091960;28;20027;-66
2022/06/24 08:46:20;;;;;;;7.88;2.63;;;;;;;;;;5091928;28;20035;-64
2022/06/24 08:48:46;;;;;;;4.75;2.45;;;;;;;;;;5092028;28;20388;-65
2022/06/24 08:51:12;;;;;;;5.60;2.25;;;;;;;;;;5091901;28;20389;-65
2022/06/24 08:53:39;;;;;;;3.72;1.90;;;;;;;;;;5091645;28;20031;-65
2022/06/24 08:56:05;;;;;;;3.55;1.90;;;;;;;;;;5091873;28;20036;-67
2022/06/24 08:58:31;;;;;;;3.85;2.28;;;;;;;;;;5091972;28;20031;-65
2022/06/24 09:00:57;;;;;;;7.85;1.90;;;;;;;;;;5091852;28;20099;-67
2022/06/24 09:03:22;;;;;;;4.93;2.13;;;;;;;;;;5091878;28;20023;-66
2022/06/24 09:05:48;;;;;;;6.72;2.30;;;;;;;;;;5091959;28;20020;-66
2022/06/24 09:08:16;;;;;;;5.72;2.20;;;;;;;;;;5091670;28;20093;-66
2022/06/24 09:11:05;;;;;;;5.90;1.73;;;;;;;;;;5093280;28;20031;-67
2022/06/24 09:13:30;;;;;;;3.88;2.03;;;;;;;;;;5096092;28;20028;-66
2022/06/24 09:15:55;;;;;;;5.65;2.08;;;;;;;;;;5095367;28;20119;-66
2022/06/24 09:18:22;;;;;;;4.90;2.13;;;;;;;;;;5095621;28;20020;-66
2022/06/24 09:20:49;;;;;;;6.70;2.15;;;;;;;;;;5095755;28;20032;-67
2022/06/24 09:23:15;;;;;;;3.85;2.17;;;;;;;;;;5095089;28;20048;-65
2022/06/24 09:25:53;;;;;;;5.03;2.58;;;;;;;;;;5095422;28;20093;-65
2022/06/24 09:28:25;;;;;;;4.15;2.30;;;;;;;;;;5093910;28;20077;-65
2022/06/24 09:31:02;;;;;;;4.53;2.10;;;;;;;;;;5095048;28;20399;-66
2022/06/24 09:33:38;;;;;;;3.40;1.70;;;;;;;;;;5095328;28;20477;-65
2022/06/24 09:36:05;;;;;;;5.70;2.40;;;;;;;;;;5095270;28;20073;-65
2022/06/24 09:38:31;;;;;;;7.40;2.33;;;;;;;;;;5094982;28;20106;-65
2022/06/24 09:41:01;;;;;;;3.47;2.10;;;;;;;;;;5095321;28;20040;-66
2022/06/24 09:43:32;;;;;;;8.48;2.10;;;;;;;;;;5095038;28;20031;-66
2022/06/24 09:45:58;;;;;;;8.93;2.28;;;;;;;;;;5094962;28;20032;-66
2022/06/24 09:48:32;;;;;;;5.00;2.42;;;;;;;;;;5095349;28;20020;-67
2022/06/24 09:51:02;;;;;;;5.07;2.67;;;;;;;;;;5094870;28;20377;-66
2022/06/24 09:53:35;;;;;;;6.07;2.42;;;;;;;;;;5093357;28;20033;-65
2022/06/24 09:56:01;;;;;;;4.43;2.30;;;;;;;;;;5083530;28;20033;-65
2022/06/24 09:58:27;;;;;;;3.70;2.05;;;;;;;;;;5074688;28;20035;-65
2022/06/24 10:00:53;;;;;;;6.45;2.45;;;;;;;;;;5074585;28;20024;-65
2022/06/24 10:03:19;;;;;;;6.47;2.83;;;;;;;;;;5074569;28;20036;-65
2022/06/24 10:05:48;;;;;;;3.95;2.38;;;;;;;;;;5074590;28;20032;-66
2022/06/24 10:08:19;;;;;;;3.17;2.25;;;;;;;;;;5074603;28;20024;-65
2022/06/24 10:10:46;;;;;;;6.40;2.22;;;;;;;;;;5074363;28;20085;-65
2022/06/24 10:13:29;;;;;;;4.43;2.50;;;;;;;;;;5074067;28;20133;-64
2022/06/24 10:16:02;;;;;;;6.03;2.80;;;;;;;;;;5074356;28;20512;-65
2022/06/24 10:18:36;;;;;;;6.70;2.63;;;;;;;;;;5089913;28;20032;-65
2022/06/24 10:21:04;;;;;;;4.45;2.03;;;;;;;;;;5094199;28;20024;-66
2022/06/24 10:23:40;;;;;;;7.05;2.47;;;;;;;;;;5094232;28;20056;-66
2022/06/24 10:26:32;;;;;;;6.50;2.40;;;;;;;;;;5094490;28;20038;-68
2022/06/24 10:29:03;;;;;;;5.75;2.35;;;;;;;;;;5094369;28;20028;-67
2022/06/24 10:34:22;;;;;;;6.15;2.70;;;;;;;;;;5094343;28;20036;-67
2022/06/24 10:36:49;;;;;;;5.20;2.55;;;;;;;;;;5093979;28;20031;-68
2022/06/24 10:39:21;;;;;;;6.10;2.33;;;;;;;;;;5094091;28;20107;-67
2022/06/24 10:41:57;;;;;;;5.72;2.20;;;;;;;;;;5094221;28;20032;-67
2022/06/24 10:44:33;;;;;;;4.18;2.55;;;;;;;;;;5094079;28;20460;-67
2022/06/24 10:47:04;;;;;;;4.47;2.47;;;;;;;;;;5093967;28;20056;-65
2022/06/24 10:49:52;;;;;;;10.30;2.80;;;;;;;;;;5093523;28;20098;-66
2022/06/24 10:52:36;;;;;;;4.63;2.58;;;;;;;;;;5093712;28;20059;-64
2022/06/24 10:57:43;;;;;;;4.50;2.67;;;;;;;;;;5073533;28;20405;-64
2022/06/24 11:00:23;;;;;;;5.05;2.17;;;;;;;;;;5073420;28;20031;-65
2022/06/24 11:02:59;;;;;;;7.45;2.30;;;;;;;;;;5073506;28;20029;-65
2022/06/24 11:05:29;;;;;;;2.60;2.08;;;;;;;;;;5072982;28;20070;-65
2022/06/24 11:07:54;;;;;;;3.67;1.98;;;;;;;;;;5073560;28;20031;-65
2022/06/24 11:10:22;;;;;;;7.18;2.30;;;;;;;;;;5073223;28;20028;-65
2022/06/24 11:12:50;;;;;;;3.55;1.92;;;;;;;;;;5073166;28;20060;-65
2022/06/24 11:15:16;;;;;;;5.00;2.47;;;;;;;;;;5072929;28;20024;-66
2022/06/24 11:17:42;;;;;;;9.68;2.60;;;;;;;;;;5082189;28;20028;-65
2022/06/24 11:20:12;;;;;;;5.35;2.00;;;;;;;;;;5093033;28;20489;-66
2022/06/24 11:22:41;;;;;;;;;;;;;;;;;;5093716;28;20024;-66
2022/06/24 11:25:07;;;;;;;3.75;2.35;;;;;;;;;;5092864;28;19922;-65
2022/06/24 11:27:37;;;;;;;3.10;2.00;;;;;;;;;;5093256;28;20031;-64
2022/06/24 11:30:03;;;;;;;5.93;2.35;;;;;;;;;;5093104;28;20032;-67
2022/06/24 11:32:29;;;;;;;8.38;2.35;;;;;;;;;;5093016;28;20032;-67
2022/06/24 11:34:54;;;;;;;9.10;2.40;;;;;;;;;;5092393;28;20031;-64
2022/06/24 11:37:24;;;;;;;8.02;2.63;;;;;;;;;;5092955;28;20039;-64
2022/06/24 11:39:54;;;;;;;12.30;2.45;;;;;;;;;;5093101;28;20062;-67
2022/06/24 11:42:21;;;;;;;3.70;1.80;;;;;;;;;;5091688;28;20035;-65
2022/06/24 11:44:50;;;;;;;3.97;2.85;;;;;;;;;;5092779;28;20024;-64
2022/06/24 11:47:16;;;;;;;2.80;1.85;;;;;;;;;;5092587;28;20470;-64
2022/06/24 11:49:44;;;;;;;4.03;2.20;;;;;;;;;;5092691;28;20035;-65
2022/06/24 11:52:10;;;;;;;3.28;1.92;;;;;;;;;;5092732;28;20488;-64
2022/06/24 11:54:36;;;;;;;4.63;2.20;;;;;;;;;;5092772;28;20028;-65
2022/06/24 11:57:06;;;;;;;4.45;2.30;;;;;;;;;;5092553;28;20039;-65
2022/06/24 11:59:31;;;;;;;5.90;2.10;;;;;;;;;;5092764;28;20020;-65
2022/06/24 12:01:57;;;;;;;6.63;1.98;;;;;;;;;;5092398;28;20357;-64
2022/06/24 12:04:25;;;;;;;2.47;1.83;;;;;;;;;;5092410;28;20081;-64
2022/06/24 12:06:51;;;;;;;3.85;2.20;;;;;;;;;;5092529;28;20035;-64
2022/06/24 12:09:17;;;;;;;5.18;2.30;;;;;;;;;;5091071;28;20061;-65
2022/06/24 12:11:44;;;;;;;8.60;2.47;;;;;;;;;;5092482;28;20024;-65
2022/06/24 12:14:15;;;;;;;7.78;2.10;;;;;;;;;;5092386;28;20020;-64
2022/06/24 12:17:03;;;;;;;3.53;2.00;;;;;;;;;;5092084;28;20024;-64
2022/06/24 12:19:39;;;;;;;4.63;2.13;;;;;;;;;;5092485;28;20025;-65
2022/06/24 12:22:10;;;;;;;8.65;2.17;;;;;;;;;;5092478;28;20024;-65
2022/06/24 12:24:36;;;;;;;4.00;2.00;;;;;;;;;;5092066;28;20048;-65
2022/06/24 12:27:04;;;;;;;4.13;1.90;;;;;;;;;;5092301;28;20028;-65
2022/06/24 12:29:38;;;;;;;5.72;2.05;;;;;;;;;;5092030;28;20540;-65
2022/06/24 12:32:05;;;;;;;7.38;1.77;;;;;;;;;;5092103;28;20389;-64
2022/06/24 12:34:38;;;;;;;4.88;2.08;;;;;;;;;;5092063;28;20024;-64
2022/06/24 12:37:06;;;;;;;6.03;2.10;;;;;;;;;;5092056;28;20032;-65
2022/06/24 12:39:37;;;;;;;6.53;2.63;;;;;;;;;;5092211;28;20102;-64
2022/06/24 12:42:04;;;;;;;5.03;2.35;;;;;;;;;;5092494;28;20457;-64
2022/06/24 12:44:43;;;;;;;6.25;2.20;;;;;;;;;;5092406;28;20081;-65
2022/06/24 12:52:44;;;;;;;3.78;2.30;;;;;;;;;;5096436;28;20093;-64
2022/06/24 12:55:13;;;;;;;8.43;2.23;;;;;;;;;;5095899;28;20028;-67
2022/06/24 12:57:39;;;;;;;2.90;1.73;;;;;;;;;;5096258;28;20089;-64
2022/06/24 13:00:10;;;;;;;6.90;2.50;;;;;;;;;;5094190;28;20020;-66
2022/06/24 13:02:41;;;;;;;14.55;1.73;;;;;;;;;;5075725;28;20032;-64
2022/06/24 13:05:06;;;;;;;4.93;2.17;;;;;;;;;;5074199;28;20033;-64
2022/06/24 13:07:32;;;;;;;4.15;2.00;;;;;;;;;;5085157;28;20080;-65
2022/06/24 13:09:58;;;;;;;6.35;2.13;;;;;;;;;;5095809;28;20032;-65
2022/06/24 13:12:23;;;;;;;16.33;2.40;;;;;;;;;;5095947;28;20028;-64
2022/06/24 13:14:49;;;;;;;3.08;2.00;;;;;;;;;;5095380;28;20085;-65
2022/06/24 13:17:15;;;;;;;6.75;1.77;;;;;;;;;;5090111;28;20028;-64
2022/06/24 13:19:40;;;;;;;7.80;2.53;;;;;;;;;;5075250;28;20113;-64
2022/06/24 13:22:06;;;;;;;4.53;2.03;;;;;;;;;;5075317;28;20017;-64
2022/06/24 13:24:33;;;;;;;5.88;2.30;;;;;;;;;;5074858;28;20045;-64
2022/06/24 13:27:01;;;;;;;9.80;2.00;;;;;;;;;;5075152;28;20055;-64
2022/06/24 13:29:27;;;;;;;12.88;2.75;;;;;;;;;;5074991;28;20043;-63
2022/06/24 13:31:53;;;;;;;8.07;2.20;;;;;;;;;;5075446;28;20373;-64
2022/06/24 13:34:18;;;;;;;4.20;2.28;;;;;;;;;;5075036;28;20027;-64
2022/06/24 13:36:44;;;;;;;6.50;2.55;;;;;;;;;;5074943;28;20085;-65
2022/06/24 13:39:09;;;;;;;3.03;1.65;;;;;;;;;;5074752;28;20031;-67
2022/06/24 13:41:35;;;;;;;3.70;1.80;;;;;;;;;;5074710;28;20074;-65
2022/06/24 13:44:02;;;;;;;4.65;1.65;;;;;;;;;;5072647;28;20044;-65
2022/06/24 13:46:27;;;;;;;5.95;2.17;;;;;;;;;;5075009;28;20032;-66
2022/06/24 13:48:57;;;;;;;6.20;1.95;;;;;;;;;;5074760;28;20488;-65
2022/06/24 13:51:23;;;;;;;4.53;1.95;;;;;;;;;;5074613;28;20033;-65
2022/06/24 13:53:49;;;;;;;8.07;2.17;;;;;;;;;;5074743;28;20034;-65
2022/06/24 13:56:15;;;;;;;3.38;1.90;;;;;;;;;;5074302;28;20078;-66
2022/06/24 13:58:41;;;;;;;3.00;1.88;;;;;;;;;;5074458;28;20068;-65
2022/06/24 14:01:07;;;;;;;2.97;1.70;;;;;;;;;;5074378;28;20025;-66
2022/06/24 14:03:33;;;;;;;4.05;2.03;;;;;;;;;;5074571;28;20016;-67
2022/06/24 14:05:59;;;;;;;3.83;1.75;;;;;;;;;;5074637;28;20090;-66
2022/06/24 14:08:25;;;;;;;4.88;2.30;;;;;;;;;;5074799;28;20027;-66
2022/06/24 14:10:51;;;;;;;4.82;1.98;;;;;;;;;;5089163;28;20020;-66
2022/06/24 14:13:17;;;;;;;5.05;2.10;;;;;;;;;;5093660;28;20028;-67
2022/06/24 14:15:43;;;;;;;6.03;1.90;;;;;;;;;;5094023;28;20066;-66
2022/06/24 14:18:08;;;;;;;5.65;1.90;;;;;;;;;;5093930;28;20391;-67
2022/06/24 14:20:34;;;;;;;3.67;2.00;;;;;;;;;;5093893;28;20375;-67
2022/06/24 14:25:44;;;;;;;10.15;1.92;;;;;;;;;;5093544;28;20081;-67
2022/06/24 14:28:09;;;;;;;5.13;2.00;;;;;;;;;;5114694;28;20024;-64
2022/06/24 14:30:37;;;;;;;5.97;2.28;;;;;;;;;;5114889;28;20472;-66
2022/06/24 14:33:03;;;;;;;5.05;1.92;;;;;;;;;;5114887;28;20027;-66
2022/06/24 14:35:28;;;;;;;4.47;2.15;;;;;;;;;;5114545;28;20487;-66
2022/06/24 14:40:38;;;;;;;5.15;1.80;;;;;;;;;;5114873;28;20043;-65
2022/06/24 14:43:04;;;;;;;3.58;1.70;;;;;;;;;;5114234;28;20020;-65
2022/06/24 14:45:31;;;;;;;4.38;1.55;;;;;;;;;;5114139;28;20028;-66
2022/06/24 14:47:58;;;;;;;6.50;2.10;;;;;;;;;;5114331;28;20032;-65
2022/06/24 14:50:25;;;;;;;4.80;1.80;;;;;;;;;;5114466;28;20020;-66
2022/06/24 14:52:51;;;;;;;3.83;2.15;;;;;;;;;;5114242;28;20028;-66
2022/06/24 14:55:17;;;;;;;3.88;1.83;;;;;;;;;;5113915;27;20107;-66
2022/06/24 14:57:43;;;;;;;3.78;1.52;;;;;;;;;;5114095;28;20020;-66
2022/06/24 15:00:09;;;;;;;3.45;1.95;;;;;;;;;;5114461;28;20096;-64
2022/06/24 15:02:37;;;;;;;5.00;1.80;;;;;;;;;;5114181;28;20437;-66
2022/06/24 15:05:04;;;;;;;3.00;1.63;;;;;;;;;;5113902;28;20024;-65
2022/06/24 15:07:30;;;;;;;6.38;1.95;;;;;;;;;;5113546;28;20110;-64
2022/06/24 15:09:55;;;;;;;4.32;1.48;;;;;;;;;;5113714;28;20126;-67